Time;durP1;ratioP1;P1;durP2;ratioP2;P2;SDS_P1;SDS_P2;PMS_P1;PMS_P2;Temp;Humidity;BMP_temperature;BMP_pressure;BME280_temperature;BME280_humidity;BME280_pressure;Samples;Min_cycle;Max_cycle;Signal;HPM_P1;HPM_P2
2022/03/29 00:02:10;;;;;;;83.38;26.73;;;6.60;99.90;;;;;;5046663;28;20098;-68
2022/03/29 00:04:36;;;;;;;85.03;26.50;;;6.60;99.90;;;;;;5047122;28;20509;-68
2022/03/29 00:07:01;;;;;;;80.10;26.15;;;6.60;99.90;;;;;;5051900;28;20395;-68
2022/03/29 00:09:27;;;;;;;83.75;26.02;;;6.60;99.90;;;;;;5030377;28;20605;-68
2022/03/29 00:11:52;;;;;;;88.50;27.42;;;6.60;99.90;;;;;;5049935;28;20032;-68
2022/03/29 00:14:18;;;;;;;72.55;24.75;;;6.60;99.90;;;;;;5047163;28;20031;-68
2022/03/29 00:16:44;;;;;;;80.88;25.52;;;6.60;99.90;;;;;;5045332;28;20094;-68
2022/03/29 00:19:09;;;;;;;76.13;25.33;;;6.60;99.90;;;;;;5044877;28;20037;-68
2022/03/29 00:21:35;;;;;;;87.97;26.65;;;6.50;99.90;;;;;;5049157;28;20036;-68
2022/03/29 00:24:01;;;;;;;75.75;24.98;;;6.60;99.90;;;;;;5048757;28;20135;-68
2022/03/29 00:26:26;;;;;;;79.90;25.17;;;6.60;99.90;;;;;;5047859;28;20178;-68
2022/03/29 00:28:52;;;;;;;85.32;26.83;;;6.50;99.90;;;;;;5048024;28;20495;-67
2022/03/29 00:31:19;;;;;;;81.32;25.88;;;6.60;99.90;;;;;;5049240;28;20481;-67
2022/03/29 00:33:46;;;;;;;78.93;24.60;;;6.60;99.90;;;;;;5049151;28;20051;-67
2022/03/29 00:36:12;;;;;;;79.03;26.10;;;6.50;99.90;;;;;;5055004;28;20045;-67
2022/03/29 00:38:38;;;;;;;73.70;23.35;;;6.60;99.90;;;;;;5049110;28;20047;-67
2022/03/29 00:41:03;;;;;;;74.75;24.77;;;6.60;99.90;;;;;;5040772;28;20040;-67
2022/03/29 00:43:29;;;;;;;70.00;24.85;;;6.50;99.90;;;;;;5028043;28;20083;-67
2022/03/29 00:45:55;;;;;;;73.07;25.30;;;6.50;99.90;;;;;;5046712;28;20087;-67
2022/03/29 00:48:20;;;;;;;73.72;23.92;;;6.50;99.90;;;;;;5042627;28;20049;-67
2022/03/29 00:50:46;;;;;;;74.05;25.40;;;6.50;99.90;;;;;;5047234;28;20040;-67
2022/03/29 00:53:12;;;;;;;69.53;24.20;;;6.50;99.90;;;;;;5048010;28;20395;-68
2022/03/29 00:55:38;;;;;;;63.42;19.63;;;6.50;99.90;;;;;;5049462;28;20041;-67
2022/03/29 00:58:06;;;;;;;71.40;24.95;;;6.50;99.90;;;;;;5056366;28;20033;-68
2022/03/29 01:00:34;;;;;;;69.65;24.63;;;6.50;99.90;;;;;;5049379;28;20036;-68
2022/03/29 01:03:03;;;;;;;78.20;25.52;;;6.50;99.90;;;;;;5049290;28;20037;-68
2022/03/29 01:05:29;;;;;;;68.57;24.80;;;6.50;99.90;;;;;;5053014;28;20040;-68
2022/03/29 01:07:56;;;;;;;66.43;22.95;;;6.50;99.90;;;;;;5060891;28;20098;-67
2022/03/29 01:10:23;;;;;;;74.25;25.63;;;6.50;99.90;;;;;;5048165;28;20033;-68
2022/03/29 01:12:49;;;;;;;72.93;25.80;;;6.50;99.90;;;;;;5056712;28;20095;-67
2022/03/29 01:15:16;;;;;;;71.30;25.25;;;6.30;99.90;;;;;;5047823;28;20482;-67
2022/03/29 01:17:43;;;;;;;65.88;24.05;;;6.40;99.90;;;;;;5043552;28;20104;-67
2022/03/29 01:20:28;;;;;;;63.53;20.60;;;6.40;99.90;;;;;;5042868;28;20048;-67
2022/03/29 01:22:55;;;;;;;67.38;23.83;;;6.40;99.90;;;;;;5056397;28;20044;-67
2022/03/29 01:25:24;;;;;;;69.75;23.83;;;6.40;99.90;;;;;;5063153;28;20045;-68
2022/03/29 01:27:51;;;;;;;63.95;23.05;;;6.30;99.90;;;;;;5048271;28;20037;-68
2022/03/29 01:30:18;;;;;;;69.15;24.33;;;6.30;99.90;;;;;;5048377;28;20035;-67
2022/03/29 01:32:45;;;;;;;66.00;24.17;;;6.30;99.90;;;;;;5049563;28;20044;-68
2022/03/29 01:35:12;;;;;;;69.18;24.35;;;6.30;99.90;;;;;;5056788;28;20049;-67
2022/03/29 01:37:38;;;;;;;69.25;24.38;;;6.30;99.90;;;;;;5046457;28;20049;-68
2022/03/29 01:40:25;;;;;;;71.80;25.48;;;6.20;99.90;;;;;;5057091;28;20095;-68
2022/03/29 01:42:53;;;;;;;69.85;23.67;;;6.30;99.90;;;;;;5046990;28;20466;-68
2022/03/29 01:45:20;;;;;;;72.18;25.60;;;6.30;99.90;;;;;;5046996;28;20120;-68
2022/03/29 01:47:46;;;;;;;69.75;24.67;;;6.30;99.90;;;;;;5047866;28;20037;-68
2022/03/29 01:50:13;;;;;;;67.63;24.90;;;6.20;99.90;;;;;;5046500;28;20120;-70
2022/03/29 01:52:45;;;;;;;70.93;25.63;;;6.30;99.90;;;;;;5044725;28;20040;-69
2022/03/29 01:55:11;;;;;;;70.55;25.98;;;6.20;99.90;;;;;;5060481;28;20472;-69
2022/03/29 01:57:37;;;;;;;71.78;27.23;;;6.30;99.90;;;;;;5048057;28;20029;-69
2022/03/29 02:02:49;;;;;;;76.68;26.00;;;6.30;99.90;;;;;;5046908;28;20474;-68
2022/03/29 02:05:14;;;;;;;68.43;25.27;;;6.30;99.90;;;;;;5047310;28;20068;-69
2022/03/29 02:07:40;;;;;;;73.65;26.65;;;6.30;99.90;;;;;;5046007;28;20044;-68
2022/03/29 02:10:06;;;;;;;71.13;27.02;;;6.20;99.90;;;;;;5030636;28;20375;-68
2022/03/29 02:12:35;;;;;;;76.93;27.25;;;6.20;99.90;;;;;;5047570;28;20090;-68
2022/03/29 02:15:00;;;;;;;76.50;28.77;;;6.20;99.90;;;;;;5047308;28;20115;-68
2022/03/29 02:17:26;;;;;;;81.38;27.80;;;6.20;99.90;;;;;;5044634;28;20168;-68
2022/03/29 02:19:51;;;;;;;72.07;27.30;;;6.10;99.90;;;;;;5050147;28;20052;-68
2022/03/29 02:22:17;;;;;;;79.22;28.75;;;6.20;99.90;;;;;;5051398;28;20051;-68
2022/03/29 02:24:43;;;;;;;84.57;29.35;;;6.10;99.90;;;;;;5050706;28;20048;-68
2022/03/29 02:27:09;;;;;;;81.65;29.80;;;6.10;99.90;;;;;;5050534;28;20051;-68
2022/03/29 02:29:35;;;;;;;82.30;27.60;;;6.00;99.90;;;;;;5049980;28;20063;-67
2022/03/29 02:32:00;;;;;;;81.82;28.60;;;6.10;99.90;;;;;;5050949;28;20570;-68
2022/03/29 02:34:26;;;;;;;81.45;29.65;;;6.10;99.90;;;;;;5051003;28;20037;-67
2022/03/29 02:36:51;;;;;;;83.53;29.27;;;6.00;99.90;;;;;;5050335;28;20043;-67
2022/03/29 02:39:17;;;;;;;80.88;29.23;;;6.00;99.90;;;;;;5054394;28;20119;-66
2022/03/29 02:41:43;;;;;;;85.43;30.63;;;6.00;99.90;;;;;;5046167;28;20369;-67
2022/03/29 02:44:08;;;;;;;76.07;27.13;;;6.00;99.90;;;;;;5051608;28;20037;-67
2022/03/29 02:46:34;;;;;;;80.00;28.85;;;6.10;99.90;;;;;;5036951;28;20432;-68
2022/03/29 02:49:00;;;;;;;87.78;29.98;;;6.00;99.90;;;;;;5055168;28;20045;-68
2022/03/29 02:51:26;;;;;;;82.93;30.30;;;6.10;99.90;;;;;;5050460;28;20083;-68
2022/03/29 02:53:52;;;;;;;87.82;30.10;;;6.00;99.90;;;;;;5063648;28;20395;-67
2022/03/29 02:56:17;;;;;;;85.95;30.95;;;6.00;99.90;;;;;;5057388;28;20024;-68
2022/03/29 02:58:43;;;;;;;87.10;30.30;;;6.00;99.90;;;;;;5059716;28;20394;-68
2022/03/29 03:01:09;;;;;;;85.22;30.13;;;6.00;99.90;;;;;;5050145;28;20073;-68
2022/03/29 03:03:34;;;;;;;87.25;29.85;;;6.00;99.90;;;;;;5045757;28;20395;-68
2022/03/29 03:06:00;;;;;;;83.07;29.50;;;6.00;99.90;;;;;;5063423;28;20048;-68
2022/03/29 03:08:25;;;;;;;87.72;30.45;;;6.00;99.90;;;;;;5052490;28;20045;-68
2022/03/29 03:10:51;;;;;;;85.82;29.23;;;6.10;99.90;;;;;;5061384;28;20044;-68
2022/03/29 03:13:16;;;;;;;90.93;31.50;;;6.10;99.90;;;;;;5062480;28;20037;-68
2022/03/29 03:15:42;;;;;;;88.78;29.77;;;6.10;99.90;;;;;;5049980;28;20175;-68
2022/03/29 03:18:09;;;;;;;90.68;31.05;;;6.10;99.90;;;;;;5063845;28;20483;-68
2022/03/29 03:20:35;;;;;;;96.60;32.75;;;6.10;99.90;;;;;;5061015;28;20491;-68
2022/03/29 03:23:02;;;;;;;91.45;31.23;;;6.10;99.90;;;;;;5060087;28;20102;-67
2022/03/29 03:25:28;;;;;;;87.60;31.38;;;6.10;99.90;;;;;;5061044;28;21393;-68
2022/03/29 03:27:53;;;;;;;87.82;31.70;;;6.10;99.90;;;;;;5065362;28;20036;-68
2022/03/29 03:30:19;;;;;;;89.25;30.50;;;6.10;99.90;;;;;;5049817;28;20123;-67
2022/03/29 03:32:46;;;;;;;86.63;29.98;;;6.10;99.90;;;;;;5065667;28;20068;-67
2022/03/29 03:35:13;;;;;;;85.15;29.42;;;6.10;99.90;;;;;;5050355;28;20159;-68
2022/03/29 03:37:39;;;;;;;81.10;27.83;;;6.10;99.90;;;;;;5063584;28;20387;-66
2022/03/29 03:40:08;;;;;;;77.97;28.15;;;6.10;99.90;;;;;;5049352;28;20488;-66
2022/03/29 03:42:35;;;;;;;79.45;26.95;;;6.10;99.90;;;;;;5056782;28;20056;-67
2022/03/29 03:45:02;;;;;;;78.00;28.73;;;6.10;99.90;;;;;;5049287;28;20128;-67
2022/03/29 03:47:28;;;;;;;78.57;27.17;;;6.10;99.90;;;;;;5049210;28;20041;-67
2022/03/29 03:49:53;;;;;;;83.68;29.10;;;6.10;99.90;;;;;;5048875;28;20494;-68
2022/03/29 03:52:19;;;;;;;92.35;29.63;;;6.10;99.90;;;;;;5050187;28;20414;-67
2022/03/29 03:54:45;;;;;;;80.07;27.77;;;6.00;99.90;;;;;;5049457;28;20047;-67
2022/03/29 03:57:11;;;;;;;81.55;25.65;;;6.10;99.90;;;;;;5064546;28;20083;-67
2022/03/29 03:59:36;;;;;;;87.43;29.20;;;6.10;99.90;;;;;;5050240;28;20424;-68
2022/03/29 04:02:02;;;;;;;88.15;28.10;;;6.10;99.90;;;;;;5049673;28;20049;-68
2022/03/29 04:04:28;;;;;;;92.95;27.83;;;6.10;99.90;;;;;;5049632;28;20032;-68
2022/03/29 04:06:54;;;;;;;93.53;29.52;;;6.10;99.90;;;;;;5049171;28;20048;-68
2022/03/29 04:09:20;;;;;;;83.68;27.27;;;6.10;99.90;;;;;;5053139;28;20119;-68
2022/03/29 04:11:46;;;;;;;83.80;27.30;;;6.10;99.90;;;;;;5064617;28;20060;-67
2022/03/29 04:14:11;;;;;;;83.75;27.30;;;6.10;99.90;;;;;;5043073;28;20040;-66
2022/03/29 04:16:37;;;;;;;82.32;27.52;;;6.00;99.90;;;;;;5047924;28;20121;-68
2022/03/29 04:19:03;;;;;;;84.05;27.63;;;6.00;99.90;;;;;;5046770;28;20434;-67
2022/03/29 04:21:29;;;;;;;84.60;27.13;;;6.10;99.90;;;;;;5049444;28;20514;-67
2022/03/29 04:23:54;;;;;;;83.03;28.05;;;6.00;99.90;;;;;;5048587;28;20033;-68
2022/03/29 04:26:20;;;;;;;91.13;28.10;;;6.10;99.90;;;;;;5047938;28;20045;-67
2022/03/29 04:28:45;;;;;;;89.78;29.35;;;6.00;99.90;;;;;;5053122;28;20067;-67
2022/03/29 04:31:11;;;;;;;88.60;26.75;;;6.00;99.90;;;;;;5056929;28;20033;-67
2022/03/29 04:33:37;;;;;;;84.18;29.15;;;6.00;99.90;;;;;;5049980;28;20045;-68
2022/03/29 04:36:04;;;;;;;87.97;28.00;;;6.10;99.90;;;;;;5055255;28;20159;-68
2022/03/29 04:38:30;;;;;;;99.10;30.27;;;6.00;99.90;;;;;;5056715;28;20060;-68
2022/03/29 04:40:56;;;;;;;94.82;30.20;;;6.10;99.90;;;;;;5047384;28;20075;-68
2022/03/29 04:43:22;;;;;;;89.88;29.55;;;6.10;99.90;;;;;;5047747;28;20037;-68
2022/03/29 04:45:48;;;;;;;98.82;30.02;;;6.00;99.90;;;;;;5053710;28;20128;-68
2022/03/29 04:48:14;;;;;;;88.93;29.42;;;6.10;99.90;;;;;;5048946;28;20373;-68
2022/03/29 04:50:40;;;;;;;97.15;30.70;;;6.10;99.90;;;;;;5046314;28;20037;-68
2022/03/29 04:53:07;;;;;;;97.93;30.52;;;6.10;99.90;;;;;;5058655;28;20112;-69
2022/03/29 04:55:32;;;;;;;96.80;30.15;;;6.00;99.90;;;;;;5048144;28;20065;-68
2022/03/29 04:58:00;;;;;;;93.45;28.65;;;6.10;99.90;;;;;;5040307;28;20080;-68
2022/03/29 05:00:26;;;;;;;100.97;30.90;;;6.00;99.90;;;;;;5067332;28;20553;-68
2022/03/29 05:02:52;;;;;;;98.13;29.75;;;6.10;99.90;;;;;;5058707;28;20033;-68
2022/03/29 05:05:17;;;;;;;96.68;31.23;;;6.00;99.90;;;;;;5042029;28;20095;-68
2022/03/29 05:07:43;;;;;;;92.63;29.13;;;6.10;99.90;;;;;;5044620;28;20139;-68
2022/03/29 05:10:11;;;;;;;101.25;31.23;;;6.10;99.90;;;;;;5042908;28;20037;-68
2022/03/29 05:12:44;;;;;;;95.20;31.13;;;6.10;99.90;;;;;;5045266;28;20069;-68
2022/03/29 05:15:12;;;;;;;97.75;31.02;;;6.10;99.90;;;;;;5041572;28;20376;-69
2022/03/29 05:17:38;;;;;;;97.55;31.08;;;6.20;99.90;;;;;;5041714;28;20036;-68
2022/03/29 05:20:06;;;;;;;97.18;30.23;;;6.10;99.90;;;;;;5046028;28;20045;-68
2022/03/29 05:22:32;;;;;;;92.28;29.65;;;6.10;99.90;;;;;;5045949;28;20052;-68
2022/03/29 05:24:58;;;;;;;92.60;30.08;;;6.10;99.90;;;;;;5037855;28;20679;-69
2022/03/29 05:27:24;;;;;;;85.38;28.10;;;6.10;99.90;;;;;;5041272;28;20040;-68
2022/03/29 05:29:49;;;;;;;91.28;30.00;;;6.20;99.90;;;;;;5021310;28;20029;-68
2022/03/29 05:32:18;;;;;;;97.10;28.45;;;6.10;99.90;;;;;;5033193;28;20094;-68
2022/03/29 05:34:45;;;;;;;88.85;30.15;;;6.20;99.90;;;;;;5047047;28;20542;-68
2022/03/29 05:37:11;;;;;;;88.38;29.48;;;6.20;99.90;;;;;;5039289;28;20163;-68
2022/03/29 05:39:36;;;;;;;87.88;29.33;;;6.20;99.90;;;;;;5044520;28;20520;-68
2022/03/29 05:42:03;;;;;;;83.55;28.25;;;6.30;99.90;;;;;;5044648;28;20079;-68
2022/03/29 05:44:28;;;;;;;93.22;28.95;;;6.20;99.90;;;;;;5040498;28;20103;-68
2022/03/29 05:49:39;;;;;;;100.00;30.45;;;6.30;99.90;;;;;;5042943;28;20588;-69
2022/03/29 05:52:05;;;;;;;95.55;30.23;;;6.30;99.90;;;;;;5042015;28;20155;-68
2022/03/29 05:54:30;;;;;;;101.35;30.02;;;6.30;99.90;;;;;;5045498;28;20053;-68
2022/03/29 05:56:56;;;;;;;91.13;30.38;;;6.30;99.90;;;;;;5048412;28;20048;-68
2022/03/29 05:59:21;;;;;;;91.85;29.23;;;6.30;99.90;;;;;;5033068;28;20033;-68
2022/03/29 06:01:47;;;;;;;103.43;30.77;;;6.40;99.90;;;;;;5049837;28;20041;-67
2022/03/29 06:04:13;;;;;;;97.95;30.45;;;6.40;99.90;;;;;;5050354;28;20029;-69
2022/03/29 06:06:40;;;;;;;87.38;28.52;;;6.40;99.90;;;;;;5051808;28;20048;-68
2022/03/29 06:09:06;;;;;;;100.85;31.30;;;6.40;99.90;;;;;;5049957;28;20461;-69
2022/03/29 06:11:32;;;;;;;97.85;29.33;;;6.40;99.90;;;;;;5048850;28;20029;-69
2022/03/29 06:13:57;;;;;;;89.63;29.42;;;6.50;99.90;;;;;;5051420;28;20442;-68
2022/03/29 06:16:23;;;;;;;94.28;29.40;;;6.50;99.90;;;;;;5051528;28;20048;-68
2022/03/29 06:18:48;;;;;;;91.03;28.88;;;6.50;99.90;;;;;;5039392;28;20049;-66
2022/03/29 06:21:16;;;;;;;76.25;25.02;;;6.50;99.90;;;;;;5039047;28;20099;-68
2022/03/29 06:23:42;;;;;;;83.88;27.33;;;6.60;99.90;;;;;;5043297;28;20116;-68
2022/03/29 06:26:08;;;;;;;84.68;21.73;;;6.70;99.90;;;;;;5018542;28;20041;-67
2022/03/29 06:28:34;;;;;;;85.28;26.33;;;6.70;99.90;;;;;;5043492;28;20610;-68
2022/03/29 06:30:59;;;;;;;94.90;29.98;;;6.70;99.90;;;;;;5050578;28;20032;-69
2022/03/29 06:33:26;;;;;;;102.43;31.08;;;6.70;99.90;;;;;;5051353;28;20087;-69
2022/03/29 06:35:52;;;;;;;87.80;29.55;;;6.70;99.90;;;;;;5051171;28;20039;-68
2022/03/29 06:38:21;;;;;;;96.75;31.38;;;6.80;99.90;;;;;;5055999;28;20479;-68
2022/03/29 06:40:48;;;;;;;86.07;25.77;;;6.70;99.90;;;;;;5050770;28;20133;-66
2022/03/29 06:43:14;;;;;;;90.85;24.83;;;6.80;99.90;;;;;;5047142;28;20041;-68
2022/03/29 06:45:40;;;;;;;90.90;29.17;;;6.90;99.90;;;;;;5050802;28;20159;-67
2022/03/29 06:48:07;;;;;;;95.47;29.10;;;6.90;99.90;;;;;;5051766;28;20063;-69
2022/03/29 06:50:33;;;;;;;99.82;30.15;;;6.80;99.90;;;;;;5049986;28;20118;-69
2022/03/29 06:52:59;;;;;;;93.03;30.15;;;6.80;99.90;;;;;;5050291;28;20071;-69
2022/03/29 06:55:26;;;;;;;105.15;31.15;;;6.80;99.90;;;;;;5050172;28;20041;-69
2022/03/29 06:57:52;;;;;;;92.78;30.73;;;6.80;99.90;;;;;;5051060;28;20114;-69
2022/03/29 07:00:17;;;;;;;92.97;27.25;;;6.90;99.90;;;;;;5061716;28;20072;-67
2022/03/29 07:02:48;;;;;;;103.95;31.13;;;6.90;99.90;;;;;;5049469;28;20041;-68
2022/03/29 07:05:14;;;;;;;94.45;30.20;;;6.90;99.90;;;;;;5049504;28;20044;-68
2022/03/29 07:07:41;;;;;;;96.53;30.95;;;7.00;99.90;;;;;;5050964;28;20059;-69
2022/03/29 07:13:00;;;;;;;98.80;30.95;;;7.00;99.90;;;;;;5049602;28;20147;-68
2022/03/29 07:15:26;;;;;;;95.30;30.25;;;7.10;99.90;;;;;;5046597;28;20033;-69
2022/03/29 07:17:52;;;;;;;101.97;32.10;;;7.20;99.90;;;;;;5033253;28;20048;-69
2022/03/29 07:20:19;;;;;;;104.75;33.08;;;7.20;99.90;;;;;;5048947;28;20131;-69
2022/03/29 07:22:48;;;;;;;102.25;30.80;;;7.30;99.90;;;;;;5049061;28;20052;-69
2022/03/29 07:25:16;;;;;;;109.65;33.30;;;7.30;99.90;;;;;;5048638;28;20076;-69
2022/03/29 07:27:41;;;;;;;99.60;32.15;;;7.30;99.90;;;;;;5050672;28;20126;-69
2022/03/29 07:30:08;;;;;;;102.43;33.08;;;7.40;99.90;;;;;;5050145;28;20072;-68
2022/03/29 07:32:42;;;;;;;100.05;33.38;;;7.40;99.90;;;;;;5043235;28;20652;-69
2022/03/29 07:35:08;;;;;;;106.55;33.58;;;7.50;99.90;;;;;;5019592;28;20458;-68
2022/03/29 07:37:33;;;;;;;112.20;33.38;;;7.50;99.90;;;;;;5039057;28;20029;-68
2022/03/29 07:39:59;;;;;;;111.30;33.53;;;7.60;99.90;;;;;;5043618;28;20033;-69
2022/03/29 07:42:25;;;;;;;112.65;33.00;;;7.70;99.90;;;;;;5037307;28;20049;-68
2022/03/29 07:44:51;;;;;;;110.57;33.20;;;7.60;99.90;;;;;;5039876;28;20052;-68
2022/03/29 07:47:19;;;;;;;113.45;34.20;;;7.70;99.90;;;;;;5045991;28;20041;-69
2022/03/29 07:49:45;;;;;;;121.55;34.58;;;7.80;99.90;;;;;;5049350;28;20446;-67
2022/03/29 07:52:11;;;;;;;116.30;35.22;;;7.80;99.90;;;;;;5049462;28;20048;-70
2022/03/29 07:54:37;;;;;;;127.18;36.05;;;7.90;99.90;;;;;;5033212;28;20033;-68
2022/03/29 07:57:04;;;;;;;121.47;36.35;;;8.00;99.90;;;;;;5051092;28;20075;-67
2022/03/29 07:59:29;;;;;;;124.03;37.33;;;8.00;99.90;;;;;;5045647;28;20546;-68
2022/03/29 08:01:55;;;;;;;105.90;32.05;;;8.00;99.90;;;;;;5048276;28;20288;-67
2022/03/29 08:04:21;;;;;;;113.82;34.28;;;8.10;99.90;;;;;;5045076;28;20052;-69
2022/03/29 08:06:47;;;;;;;125.50;35.83;;;8.10;99.90;;;;;;5051964;28;20475;-69
2022/03/29 08:09:14;;;;;;;123.00;34.65;;;8.20;99.90;;;;;;5050708;28;20095;-68
2022/03/29 08:11:40;;;;;;;87.72;27.00;;;8.30;99.90;;;;;;5050448;28;20511;-68
2022/03/29 08:14:06;;;;;;;96.18;31.33;;;8.40;99.90;;;;;;5051398;28;20458;-68
2022/03/29 08:16:33;;;;;;;91.28;30.55;;;8.50;99.90;;;;;;5049376;28;20514;-69
2022/03/29 08:18:59;;;;;;;95.25;31.15;;;8.60;99.90;;;;;;5032680;28;20214;-69
2022/03/29 08:24:09;;;;;;;87.38;29.88;;;8.80;99.90;;;;;;5050965;28;20098;-68
2022/03/29 08:26:35;;;;;;;98.82;29.40;;;8.80;99.90;;;;;;5051071;28;20128;-69
2022/03/29 08:29:00;;;;;;;85.22;29.58;;;8.80;99.90;;;;;;5050860;28;20543;-68
2022/03/29 08:31:26;;;;;;;92.15;30.85;;;8.90;99.90;;;;;;5049188;28;20087;-69
2022/03/29 08:33:51;;;;;;;85.35;29.15;;;9.00;99.90;;;;;;5051126;28;20128;-69
2022/03/29 08:36:17;;;;;;;91.75;30.23;;;9.20;99.90;;;;;;5050716;28;20506;-70
2022/03/29 08:38:43;;;;;;;97.00;31.27;;;9.20;99.90;;;;;;5050540;28;20053;-69
2022/03/29 08:41:10;;;;;;;88.47;30.33;;;9.30;99.90;;;;;;5050213;28;20049;-69
2022/03/29 08:43:35;;;;;;;85.93;29.55;;;9.40;99.90;;;;;;5050902;28;20068;-69
2022/03/29 08:46:01;;;;;;;97.80;29.17;;;9.40;99.90;;;;;;5051618;28;20036;-69
2022/03/29 08:48:29;;;;;;;96.00;30.92;;;9.40;99.90;;;;;;5049297;28;20064;-70
2022/03/29 08:50:57;;;;;;;94.05;30.85;;;9.50;99.90;;;;;;5050265;28;20087;-69
2022/03/29 08:53:23;;;;;;;89.78;30.08;;;9.60;99.90;;;;;;5050336;28;20132;-70
2022/03/29 08:55:49;;;;;;;91.65;31.15;;;9.80;99.90;;;;;;5049988;28;20040;-68
2022/03/29 08:58:18;;;;;;;92.93;31.35;;;9.80;99.90;;;;;;5033998;28;20458;-68
2022/03/29 09:00:46;;;;;;;92.43;31.90;;;9.90;99.90;;;;;;5051262;28;20462;-69
2022/03/29 09:03:14;;;;;;;94.68;29.42;;;9.90;99.90;;;;;;5047975;28;20457;-68
2022/03/29 09:05:39;;;;;;;90.82;29.77;;;10.00;99.90;;;;;;5050097;28;20052;-69
2022/03/29 09:08:09;;;;;;;91.20;31.42;;;10.10;99.90;;;;;;5050195;28;20041;-68
2022/03/29 09:10:48;;;;;;;92.32;30.63;;;10.30;99.90;;;;;;5050252;28;20037;-68
2022/03/29 09:13:34;;;;;;;98.45;31.92;;;10.50;99.90;;;;;;5050272;28;20041;-68
2022/03/29 09:16:01;;;;;;;93.60;31.20;;;10.50;99.90;;;;;;5051054;28;20122;-70
2022/03/29 09:18:28;;;;;;;97.88;31.05;;;10.60;99.90;;;;;;5033405;28;20076;-70
2022/03/29 09:21:14;;;;;;;103.10;33.00;;;10.60;99.90;;;;;;5044934;28;20032;-70
2022/03/29 09:23:42;;;;;;;100.00;33.00;;;10.60;99.90;;;;;;5066268;28;20044;-70
2022/03/29 09:26:25;;;;;;;86.30;31.42;;;10.50;99.90;;;;;;5063386;28;20041;-69
2022/03/29 09:28:51;;;;;;;89.28;29.83;;;10.50;99.90;;;;;;5048900;28;20037;-69
2022/03/29 09:31:19;;;;;;;89.00;30.00;;;10.40;99.90;;;;;;5048966;28;20045;-70
2022/03/29 09:33:45;;;;;;;90.15;32.78;;;10.40;99.90;;;;;;5066009;28;20094;-69
2022/03/29 09:36:14;;;;;;;89.68;32.10;;;10.50;99.90;;;;;;5049295;28;20104;-68
2022/03/29 09:38:47;;;;;;;101.40;33.10;;;10.50;99.90;;;;;;5049668;28;20044;-71
2022/03/29 09:41:28;;;;;;;94.63;33.33;;;10.60;99.90;;;;;;5048420;28;20500;-69
2022/03/29 09:44:08;;;;;;;95.88;31.45;;;10.60;99.90;;;;;;5049937;28;20447;-69
2022/03/29 09:46:54;;;;;;;99.30;29.00;;;10.60;99.90;;;;;;5049231;28;20391;-67
2022/03/29 09:49:22;;;;;;;97.95;31.98;;;10.60;99.90;;;;;;5028825;28;20049;-69
2022/03/29 09:52:08;;;;;;;93.68;30.48;;;10.70;99.90;;;;;;5048162;28;20037;-70
2022/03/29 09:54:33;;;;;;;96.90;34.03;;;10.70;99.90;;;;;;5049582;28;20045;-70
2022/03/29 09:57:00;;;;;;;97.00;31.23;;;10.70;99.90;;;;;;5048029;28;20033;-69
2022/03/29 09:59:26;;;;;;;103.85;32.55;;;10.80;99.90;;;;;;5066442;28;20043;-70
2022/03/29 10:01:57;;;;;;;97.95;31.52;;;10.80;99.90;;;;;;5050356;28;20124;-69
2022/03/29 10:04:30;;;;;;;92.93;31.73;;;10.80;99.90;;;;;;5032833;28;20040;-69
2022/03/29 10:06:57;;;;;;;92.40;31.50;;;10.80;99.90;;;;;;5050107;28;20090;-69
2022/03/29 10:09:27;;;;;;;89.28;29.80;;;11.00;99.90;;;;;;5048854;28;20123;-68
2022/03/29 10:11:58;;;;;;;96.95;30.38;;;11.20;99.90;;;;;;5049335;28;20084;-69
2022/03/29 10:14:26;;;;;;;95.20;30.67;;;11.30;99.90;;;;;;5049976;28;20040;-69
2022/03/29 10:16:53;;;;;;;85.57;28.00;;;11.50;99.90;;;;;;5049260;28;20037;-69
2022/03/29 10:19:20;;;;;;;87.07;28.60;;;11.60;99.90;;;;;;5045464;28;20068;-68
2022/03/29 10:21:46;;;;;;;84.50;25.17;;;11.50;99.90;;;;;;5044210;28;20052;-70
2022/03/29 10:24:15;;;;;;;80.57;26.20;;;11.30;99.90;;;;;;5048484;28;20033;-68
2022/03/29 10:26:43;;;;;;;84.60;27.33;;;11.10;99.90;;;;;;5047529;28;20498;-67
2022/03/29 10:29:10;;;;;;;68.75;24.10;;;10.90;99.90;;;;;;5030934;28;20087;-67
2022/03/29 10:31:39;;;;;;;77.13;27.88;;;10.80;99.90;;;;;;5048484;28;20045;-68
2022/03/29 10:34:13;;;;;;;73.43;24.52;;;10.70;99.90;;;;;;5047310;28;20376;-66
2022/03/29 10:36:58;;;;;;;84.40;29.50;;;10.70;99.90;;;;;;5046497;28;20124;-67
2022/03/29 10:39:42;;;;;;;79.28;29.23;;;10.80;99.90;;;;;;5048717;28;20037;-66
2022/03/29 10:42:31;;;;;;;94.43;31.40;;;10.90;99.90;;;;;;5067532;28;20045;-69
2022/03/29 10:45:12;;;;;;;76.82;25.70;;;11.00;99.90;;;;;;5051407;28;20036;-67
2022/03/29 10:47:38;;;;;;;94.13;28.17;;;11.00;99.90;;;;;;5052393;28;20126;-69
2022/03/29 10:50:07;;;;;;;81.93;24.80;;;11.00;99.90;;;;;;5051199;28;20041;-66
2022/03/29 10:52:40;;;;;;;85.97;26.70;;;11.10;99.90;;;;;;5051279;28;20041;-66
2022/03/29 10:55:30;;;;;;;78.10;24.60;;;11.20;99.90;;;;;;5050680;28;20480;-67
2022/03/29 10:58:08;;;;;;;79.43;28.98;;;11.30;99.90;;;;;;5050848;28;20040;-69
2022/03/29 11:00:42;;;;;;;53.90;16.45;;;11.10;99.90;;;;;;5051756;28;20068;-68
2022/03/29 11:03:08;;;;;;;77.22;27.17;;;11.20;99.90;;;;;;5052722;28;20499;-65
2022/03/29 11:06:10;;;;;;;79.45;26.65;;;11.20;99.90;;;;;;5049309;28;20059;-68
2022/03/29 11:08:47;;;;;;;81.13;24.33;;;11.20;99.90;;;;;;5031955;28;20049;-67
2022/03/29 11:11:39;;;;;;;72.20;26.83;;;11.20;99.90;;;;;;5016004;28;20034;-68
2022/03/29 11:14:27;;;;;;;79.30;29.30;;;11.30;99.90;;;;;;5066452;28;20124;-68
2022/03/29 11:17:08;;;;;;;89.80;28.52;;;11.30;99.90;;;;;;5051294;28;20279;-67
2022/03/29 11:19:39;;;;;;;73.00;25.45;;;11.40;99.90;;;;;;5050456;28;20428;-67
2022/03/29 11:22:24;;;;;;;76.47;27.35;;;11.50;99.90;;;;;;5050182;28;20119;-68
2022/03/29 11:24:50;;;;;;;81.57;27.23;;;11.60;99.90;;;;;;5051125;28;20045;-67
2022/03/29 11:27:27;;;;;;;76.72;28.02;;;11.50;99.90;;;;;;5050959;28;20412;-67
2022/03/29 11:29:54;;;;;;;74.57;26.30;;;11.50;99.90;;;;;;5050341;28;20048;-66
2022/03/29 11:32:21;;;;;;;80.50;26.05;;;11.50;99.90;;;;;;5051408;28;20048;-71
2022/03/29 11:34:52;;;;;;;78.70;27.63;;;11.60;99.90;;;;;;5045751;28;20480;-66
2022/03/29 11:37:40;;;;;;;82.80;28.42;;;11.50;99.90;;;;;;5034643;28;20048;-68
2022/03/29 11:40:11;;;;;;;80.88;28.77;;;11.50;99.90;;;;;;5050696;28;20045;-68
2022/03/29 11:42:54;;;;;;;73.03;23.33;;;11.60;99.90;;;;;;5051187;28;20110;-72
2022/03/29 11:45:28;;;;;;;80.30;27.80;;;11.70;99.90;;;;;;5051185;28;20052;-67
2022/03/29 11:47:53;;;;;;;96.97;37.75;;;11.80;99.90;;;;;;5051567;28;20040;-71
2022/03/29 11:50:33;;;;;;;86.68;30.10;;;11.80;99.90;;;;;;5033868;28;20068;-68
2022/03/29 11:52:59;;;;;;;71.20;22.23;;;11.80;99.90;;;;;;5031456;28;20076;-68
2022/03/29 11:55:25;;;;;;;72.63;23.67;;;11.80;99.90;;;;;;5037491;28;20040;-66
2022/03/29 11:57:52;;;;;;;79.55;27.88;;;11.60;99.90;;;;;;5043589;28;20041;-67
2022/03/29 12:00:26;;;;;;;67.20;25.75;;;11.60;99.90;;;;;;5045592;28;20255;-69
2022/03/29 12:02:53;;;;;;;79.28;27.15;;;11.70;99.90;;;;;;5051899;28;20523;-69
2022/03/29 12:05:27;;;;;;;74.85;27.92;;;11.80;99.90;;;;;;5051635;28;20037;-69
2022/03/29 12:08:00;;;;;;;89.22;29.83;;;12.00;99.90;;;;;;5050158;28;20230;-68
2022/03/29 12:10:31;;;;;;;76.15;26.60;;;12.20;99.90;;;;;;5049696;28;20458;-68
2022/03/29 12:12:57;;;;;;;61.70;21.45;;;12.40;99.90;;;;;;5031550;28;20450;-68
2022/03/29 12:15:23;;;;;;;64.97;25.65;;;12.50;99.90;;;;;;5031052;28;20509;-67
2022/03/29 12:20:46;;;;;;;70.78;25.40;;;12.60;99.90;;;;;;5047031;28;20056;-68
2022/03/29 12:23:23;;;;;;;75.47;27.65;;;12.60;99.90;;;;;;5014683;28;20631;-68
2022/03/29 12:25:50;;;;;;;70.45;27.05;;;12.70;99.90;;;;;;5029509;28;20081;-68
2022/03/29 12:28:17;;;;;;;79.90;27.73;;;12.80;99.90;;;;;;5046190;28;20075;-69
2022/03/29 12:30:43;;;;;;;85.60;27.63;;;12.90;99.90;;;;;;5050072;28;20063;-70
2022/03/29 12:33:09;;;;;;;69.43;25.85;;;13.10;99.90;;;;;;5050438;28;20047;-69
2022/03/29 12:35:34;;;;;;;75.18;27.48;;;13.20;99.90;;;;;;5050642;28;20037;-68
2022/03/29 12:38:10;;;;;;;72.53;27.63;;;13.50;99.90;;;;;;5050783;28;20124;-68
2022/03/29 12:40:38;;;;;;;67.03;26.50;;;13.50;99.90;;;;;;5046000;28;20045;-69
2022/03/29 12:43:05;;;;;;;81.30;28.25;;;13.60;99.90;;;;;;5041599;28;20038;-69
2022/03/29 12:45:33;;;;;;;68.13;24.50;;;13.40;99.90;;;;;;5026057;28;20045;-69
2022/03/29 12:47:59;;;;;;;61.25;25.38;;;13.40;99.90;;;;;;5066899;28;20487;-67
2022/03/29 12:50:25;;;;;;;61.58;22.42;;;13.50;99.90;;;;;;5048512;28;20187;-68
2022/03/29 12:52:51;;;;;;;66.78;26.13;;;13.60;99.90;;;;;;5031961;28;20155;-67